Time;durP1;ratioP1;P1;durP2;ratioP2;P2;SDS_P1;SDS_P2;PMS_P1;PMS_P2;Temp;Humidity;BMP_temperature;BMP_pressure;BME280_temperature;BME280_humidity;BME280_pressure;Samples;Min_cycle;Max_cycle;Signal;HPM_P1;HPM_P2
2024/04/13 00:00:53;;;;;;;9.27;4.47;;;;;;;-145.69;58.38;52038.44;5488411;26;20273;-77
2024/04/13 00:03:22;;;;;;;9.40;3.57;;;;;;;-145.69;58.50;52052.28;5487860;26;20226;-78
2024/04/13 00:05:48;;;;;;;8.97;4.20;;;;;;;-145.69;58.58;52040.41;5487915;26;20238;-78
2024/04/13 00:08:21;;;;;;;9.10;3.80;;;;;;;-145.69;58.50;52032.47;5488219;26;20238;-78
2024/04/13 00:10:46;;;;;;;12.70;4.40;;;;;;;-145.69;59.18;52038.44;5487946;26;20242;-78
2024/04/13 00:13:15;;;;;;;11.33;4.73;;;;;;;-145.69;58.88;52062.19;5487267;26;20570;-78
2024/04/13 00:15:53;;;;;;;11.20;4.00;;;;;;;-145.69;59.31;52008.72;5488008;26;20326;-78
2024/04/13 00:18:21;;;;;;;8.40;3.47;;;;;;;-145.69;58.82;52056.25;5488074;26;20226;-78
2024/04/13 00:20:46;;;;;;;8.83;3.67;;;;;;;-145.69;58.87;52046.34;5505864;26;20560;-79
2024/04/13 00:26:00;;;;;;;13.48;5.13;;;;;;;-145.69;60.46;52083.97;5515781;26;20364;-78
2024/04/13 00:28:28;;;;;;;12.77;4.37;;;;;;;-145.69;59.96;52087.94;5524239;26;20248;-78
2024/04/13 00:31:05;;;;;;;10.87;3.73;;;;;;;-145.69;59.61;52048.31;5523886;26;20234;-78
2024/04/13 00:33:30;;;;;;;8.57;4.27;;;;;;;-145.69;60.24;52085.94;5524391;26;20225;-78
2024/04/13 00:36:03;;;;;;;12.63;3.70;;;;;;;-145.69;59.97;52062.19;5525009;26;20807;-78
2024/04/13 00:38:34;;;;;;;9.70;4.20;;;;;;;-145.69;59.96;52099.81;5528502;26;20221;-78
2024/04/13 00:41:05;;;;;;;14.00;4.27;;;;;;;-145.69;60.48;52032.47;5528334;26;20233;-78
2024/04/13 00:43:30;;;;;;;10.20;3.53;;;;;;;-145.69;60.16;52060.22;5528430;26;20217;-78
2024/04/13 00:46:07;;;;;;;8.47;4.30;;;;;;;-145.69;60.45;52078.03;5527966;26;20225;-78
2024/04/13 00:48:36;;;;;;;10.87;4.30;;;;;;;-145.69;60.36;52054.25;5521408;26;20229;-77
2024/04/13 00:51:07;;;;;;;16.67;4.50;;;;;;;-145.69;60.59;52068.13;5501970;26;20568;-77
2024/04/13 00:53:37;;;;;;;10.97;4.13;;;;;;;-145.69;60.59;52072.09;5528153;26;20234;-77
2024/04/13 00:56:14;;;;;;;8.77;4.10;;;;;;;-145.69;60.68;52095.84;5528118;26;20218;-77
2024/04/13 00:58:44;;;;;;;10.37;4.33;;;;;;;-145.69;60.39;52083.97;5528254;26;20229;-77
2024/04/13 01:01:13;;;;;;;13.00;3.70;;;;;;;-145.69;60.49;52091.88;5527726;26;20225;-78
2024/04/13 01:03:43;;;;;;;11.90;4.00;;;;;;;-145.69;60.07;52044.38;5527367;26;20276;-77
2024/04/13 01:06:13;;;;;;;10.37;4.40;;;;;;;-145.69;60.19;52074.06;5527038;26;20277;-78
2024/04/13 01:08:41;;;;;;;11.10;4.20;;;;;;;-145.69;60.84;52054.25;5527202;26;20230;-78
2024/04/13 01:11:15;;;;;;;14.60;3.97;;;;;;;-145.69;60.40;52052.28;5527030;26;20221;-78
2024/04/13 01:13:41;;;;;;;9.73;4.00;;;;;;;-145.69;60.71;52080.00;5526654;26;20285;-79
2024/04/13 01:16:10;;;;;;;10.63;3.90;;;;;;;-145.69;60.39;52072.09;5527267;26;20333;-78
2024/04/13 01:18:35;;;;;;;6.43;3.57;;;;;;;-145.69;60.34;52048.31;5527290;26;20226;-79
2024/04/13 01:21:04;;;;;;;14.60;4.00;;;;;;;-145.69;60.02;52093.88;5526964;26;20221;-79
2024/04/13 01:23:30;;;;;;;14.17;3.73;;;;;;;-145.69;60.03;52085.94;5527564;26;20221;-78
2024/04/13 01:26:08;;;;;;;11.47;4.07;;;;;;;-145.69;60.45;52078.03;5526434;26;20233;-79
2024/04/13 01:28:36;;;;;;;13.63;4.73;;;;;;;-145.69;60.73;52040.41;5527380;26;20625;-78
2024/04/13 01:31:02;;;;;;;12.50;5.10;;;;;;;-145.69;60.72;52034.47;5526152;26;20225;-78
2024/04/13 01:33:31;;;;;;;9.93;4.20;;;;;;;-145.69;60.48;52095.84;5527537;26;20596;-79
2024/04/13 01:35:57;;;;;;;8.07;3.87;;;;;;;-145.69;60.18;52032.47;5527457;26;20252;-80
2024/04/13 01:38:28;;;;;;;9.07;3.83;;;;;;;-145.69;60.08;52068.13;5527489;26;20217;-79
2024/04/13 01:40:54;;;;;;;7.40;3.73;;;;;;;-145.69;60.57;52099.81;5527090;26;20218;-78
2024/04/13 01:43:24;;;;;;;10.47;4.70;;;;;;;-145.69;61.35;52066.16;5527300;26;20660;-79
2024/04/13 01:45:52;;;;;;;7.53;3.50;;;;;;;-145.69;61.09;52083.97;5526985;26;20333;-78
2024/04/13 01:48:20;;;;;;;7.10;3.63;;;;;;;-145.69;61.43;52070.09;5525443;26;20217;-78
2024/04/13 01:50:47;;;;;;;12.87;4.47;;;;;;;-145.69;61.82;52076.03;5527298;26;20221;-78
2024/04/13 01:53:18;;;;;;;9.83;4.23;;;;;;;-145.69;61.41;52072.09;5526896;26;20706;-79
2024/04/13 01:55:52;;;;;;;8.97;3.57;;;;;;;-145.69;61.75;52083.97;5527210;26;20637;-78
2024/04/13 01:58:20;;;;;;;9.70;4.40;;;;;;;-145.69;61.09;52076.03;5526744;26;20267;-79
2024/04/13 02:00:50;;;;;;;10.07;4.47;;;;;;;-145.69;60.94;52068.13;5527372;26;20217;-78
2024/04/13 02:03:21;;;;;;;8.77;4.20;;;;;;;-145.69;61.31;52097.84;5527090;26;20252;-78
2024/04/13 02:05:47;;;;;;;11.43;4.27;;;;;;;-145.69;61.34;52068.13;5526379;26;20221;-78
2024/04/13 02:08:15;;;;;;;7.53;3.80;;;;;;;-145.69;61.89;52099.81;5526749;26;20263;-79
2024/04/13 02:10:46;;;;;;;11.30;4.20;;;;;;;-145.69;61.49;52044.38;5526391;26;20584;-78
2024/04/13 02:13:17;;;;;;;6.70;3.70;;;;;;;-145.69;61.32;52076.03;5527034;26;20260;-78
2024/04/13 02:15:50;;;;;;;6.70;3.30;;;;;;;-145.69;61.79;52099.81;5526926;26;20221;-78
2024/04/13 02:18:21;;;;;;;10.23;3.33;;;;;;;-145.69;61.76;52105.75;5527043;26;20248;-77
2024/04/13 02:20:47;;;;;;;6.03;3.03;;;;;;;-145.69;61.73;52052.28;5526913;26;20221;-77
2024/04/13 02:23:17;;;;;;;6.87;3.60;;;;;;;-145.69;62.01;52068.13;5526468;26;20222;-78
2024/04/13 02:25:45;;;;;;;9.20;3.47;;;;;;;-145.69;61.68;52066.16;5527086;26;20353;-78
2024/04/13 02:28:17;;;;;;;7.87;3.47;;;;;;;-145.69;61.93;52048.31;5524351;26;20229;-78
2024/04/13 02:30:42;;;;;;;9.00;3.73;;;;;;;-145.69;61.76;52103.78;5526879;26;20272;-78
2024/04/13 02:33:16;;;;;;;8.23;3.20;;;;;;;-145.69;61.57;52087.94;5526012;26;20225;-78
2024/04/13 02:36:12;;;;;;;8.67;3.37;;;;;;;-145.69;61.44;52080.00;5523631;26;20225;-78
2024/04/13 02:38:45;;;;;;;8.53;3.40;;;;;;;-145.69;61.80;52095.84;5526204;26;20225;-78
2024/04/13 02:41:16;;;;;;;8.23;3.63;;;;;;;-145.69;61.88;52054.25;5525967;26;20225;-78
2024/04/13 02:43:43;;;;;;;7.10;3.17;;;;;;;-145.69;61.59;52068.13;5526696;26;20834;-78
2024/04/13 02:46:23;;;;;;;9.87;3.30;;;;;;;-145.69;62.03;52076.03;5526121;26;20267;-78
2024/04/13 02:48:51;;;;;;;7.40;3.50;;;;;;;-145.69;61.69;52080.00;5489717;26;20222;-78
2024/04/13 02:51:24;;;;;;;6.20;3.33;;;;;;;-145.69;61.43;52068.13;5489523;26;20222;-78
2024/04/13 02:53:53;;;;;;;12.47;3.60;;;;;;;-145.69;61.35;52072.09;5489525;26;20334;-78
2024/04/13 02:56:24;;;;;;;7.90;3.57;;;;;;;-145.69;61.31;52085.94;5493115;26;20281;-77
2024/04/13 02:58:52;;;;;;;7.07;3.37;;;;;;;-145.69;61.59;52087.94;5488939;26;20686;-78
2024/04/13 03:01:20;;;;;;;8.03;3.60;;;;;;;-145.69;61.74;52089.91;5489564;26;20282;-77
2024/04/13 03:03:47;;;;;;;6.40;3.33;;;;;;;-145.69;61.42;52083.97;5489434;26;20230;-78
2024/04/13 03:06:18;;;;;;;5.93;3.30;;;;;;;-145.69;61.59;52074.06;5489137;26;20294;-78
2024/04/13 03:08:44;;;;;;;7.53;3.20;;;;;;;-145.69;61.82;52068.13;5489490;26;20545;-79
2024/04/13 03:11:12;;;;;;;7.70;3.40;;;;;;;-145.69;62.13;52072.09;5489068;26;20269;-78
2024/04/13 03:13:38;;;;;;;5.57;3.13;;;;;;;-145.69;62.14;52082.00;5488963;26;20226;-79
2024/04/13 03:16:11;;;;;;;5.30;3.10;;;;;;;-145.69;62.23;52028.53;5488672;26;20809;-79
2024/04/13 03:18:38;;;;;;;10.97;3.50;;;;;;;-145.69;62.30;52074.06;5525510;26;20603;-79
2024/04/13 03:21:07;;;;;;;9.90;3.30;;;;;;;-145.69;62.72;52076.03;5525748;26;20225;-79
2024/04/13 03:23:36;;;;;;;7.77;3.37;;;;;;;-145.69;63.11;52091.88;5525952;26;20350;-79
2024/04/13 03:26:06;;;;;;;9.53;3.47;;;;;;;-145.69;62.94;52070.09;5526327;26;20233;-78
2024/04/13 03:28:34;;;;;;;9.10;3.30;;;;;;;-145.69;62.73;52093.88;5525492;26;20226;-79
2024/04/13 03:31:03;;;;;;;7.77;3.50;;;;;;;-145.69;62.92;52076.03;5525623;26;20306;-77
2024/04/13 03:33:31;;;;;;;14.17;4.13;;;;;;;-145.69;63.22;52083.97;5526235;26;20218;-78
2024/04/13 03:36:02;;;;;;;6.33;3.67;;;;;;;-145.69;63.10;52095.84;5525181;26;20551;-78
2024/04/13 03:38:30;;;;;;;14.07;4.07;;;;;;;-145.69;64.10;52115.66;5525633;26;20222;-79
2024/04/13 03:41:05;;;;;;;9.37;3.70;;;;;;;-145.69;63.39;52093.88;5525261;26;20328;-79
2024/04/13 03:43:31;;;;;;;9.67;3.63;;;;;;;-145.69;63.58;52060.22;5525930;26;20346;-79
2024/04/13 03:45:59;;;;;;;6.87;3.40;;;;;;;-145.69;63.54;52107.72;5525411;26;20800;-79
2024/04/13 03:48:25;;;;;;;7.60;3.60;;;;;;;-145.69;63.47;52087.94;5524863;26;20276;-79
2024/04/13 03:50:53;;;;;;;10.67;4.00;;;;;;;-145.69;64.34;52082.00;5525056;26;20230;-79
2024/04/13 03:53:19;;;;;;;10.10;3.90;;;;;;;-145.69;64.59;52127.53;5525282;26;20708;-79
2024/04/13 03:55:47;;;;;;;8.37;3.90;;;;;;;-145.69;63.78;52091.88;5525451;26;20237;-78
2024/04/13 03:58:15;;;;;;;5.93;3.10;;;;;;;-145.69;64.34;52080.00;5525498;26;20288;-79
2024/04/13 04:00:43;;;;;;;19.17;3.57;;;;;;;-145.69;64.64;52083.97;5525299;26;20225;-79
2024/04/13 04:03:10;;;;;;;7.53;3.83;;;;;;;-145.69;64.56;52082.00;5525375;26;20272;-80
2024/04/13 04:05:38;;;;;;;5.93;3.20;;;;;;;-145.69;64.67;52087.94;5524267;26;20221;-79
2024/04/13 04:08:06;;;;;;;7.93;2.87;;;;;;;-145.69;64.89;52083.97;5524951;26;20281;-79
2024/04/13 04:10:35;;;;;;;7.83;3.70;;;;;;;-145.69;64.89;52078.03;5524249;26;20267;-78
2024/04/13 04:13:01;;;;;;;9.30;3.67;;;;;;;-145.69;64.68;52119.63;5528538;26;20541;-79
2024/04/13 04:15:32;;;;;;;8.57;3.60;;;;;;;-145.69;64.60;52056.25;5529015;26;20233;-76
2024/04/13 04:17:57;;;;;;;11.27;4.00;;;;;;;-145.69;65.29;52091.88;5528158;26;20237;-77
2024/04/13 04:20:26;;;;;;;13.03;3.97;;;;;;;-145.69;64.94;52095.84;5527750;26;20237;-80
2024/04/13 04:22:52;;;;;;;9.37;3.83;;;;;;;-145.69;64.97;52050.31;5528536;26;20272;-79
2024/04/13 04:25:21;;;;;;;11.13;4.00;;;;;;;-145.69;64.81;52070.09;5528568;26;20635;-77
2024/04/13 04:27:47;;;;;;;10.93;3.67;;;;;;;-145.69;64.66;52082.00;5527733;26;20221;-77
2024/04/13 04:30:15;;;;;;;8.97;3.83;;;;;;;-145.69;64.73;52064.16;5528147;26;20271;-77
2024/04/13 04:32:44;;;;;;;9.33;4.20;;;;;;;-145.69;64.94;52095.84;5528584;26;20657;-77
2024/04/13 04:35:12;;;;;;;13.20;5.00;;;;;;;-145.69;65.81;52099.81;5528256;26;20221;-80
2024/04/13 04:37:38;;;;;;;8.43;3.33;;;;;;;-145.69;65.51;52111.69;5528817;26;20300;-79
2024/04/13 04:40:09;;;;;;;6.73;3.83;;;;;;;-145.69;65.19;52064.16;5527390;26;20233;-78
2024/04/13 04:42:35;;;;;;;14.17;3.80;;;;;;;-145.69;65.06;52080.00;5528226;26;20257;-79
2024/04/13 04:45:03;;;;;;;8.40;3.97;;;;;;;-145.69;65.67;52083.97;5527634;26;20744;-78
2024/04/13 04:47:28;;;;;;;13.17;4.13;;;;;;;-145.69;65.66;52095.84;5526920;26;20267;-79
2024/04/13 04:49:59;;;;;;;10.17;4.50;;;;;;;-145.69;65.20;52072.09;5527577;26;20225;-79
2024/04/13 04:52:25;;;;;;;11.53;4.40;;;;;;;-145.69;65.41;52087.94;5527655;26;20334;-78
2024/04/13 04:54:55;;;;;;;6.33;3.27;;;;;;;-145.69;65.26;52068.13;5527542;26;20705;-78
2024/04/13 04:57:20;;;;;;;13.07;4.00;;;;;;;-145.69;65.13;52082.00;5527965;26;20268;-78
2024/04/13 04:59:48;;;;;;;12.03;3.50;;;;;;;-145.69;64.66;52080.00;5528121;26;20233;-79
2024/04/13 05:02:15;;;;;;;6.67;3.23;;;;;;;-145.69;64.58;52082.00;5523981;25;20323;-79
2024/04/13 05:04:43;;;;;;;7.23;3.30;;;;;;;-145.69;64.41;52083.97;5490927;26;20817;-78
2024/04/13 05:07:11;;;;;;;6.00;3.47;;;;;;;-145.69;64.46;52083.97;5490849;26;20218;-78
2024/04/13 05:09:39;;;;;;;7.67;3.63;;;;;;;-145.69;64.31;52066.16;5490939;26;20334;-78
2024/04/13 05:12:05;;;;;;;7.63;3.27;;;;;;;-145.69;64.70;52064.16;5491062;26;20223;-77
2024/04/13 05:14:34;;;;;;;10.60;3.87;;;;;;;-145.69;64.39;52082.00;5490995;26;20585;-78
2024/04/13 05:16:59;;;;;;;9.67;3.83;;;;;;;-145.69;64.38;52113.66;5490225;26;20299;-78
2024/04/13 05:19:29;;;;;;;9.07;3.93;;;;;;;-145.69;64.35;52074.06;5490280;26;20223;-78
2024/04/13 05:21:54;;;;;;;12.67;3.87;;;;;;;-145.69;64.01;52064.16;5514735;26;20268;-80
2024/04/13 05:24:25;;;;;;;13.40;3.80;;;;;;;-145.69;64.06;52048.31;5527363;26;20249;-77
2024/04/13 05:26:55;;;;;;;11.93;3.53;;;;;;;-145.69;63.95;52103.78;5527369;26;20752;-77
2024/04/13 05:29:24;;;;;;;9.13;3.90;;;;;;;-145.69;63.69;52050.31;5527626;26;20541;-77
2024/04/13 05:31:49;;;;;;;8.17;4.10;;;;;;;-145.69;63.20;52082.00;5527396;26;20267;-77
2024/04/13 05:34:18;;;;;;;9.80;4.07;;;;;;;-145.69;63.17;52064.16;5526860;26;20755;-77
2024/04/13 05:36:45;;;;;;;7.77;3.50;;;;;;;-145.69;63.19;52087.94;5527524;26;20221;-77
2024/04/13 05:39:14;;;;;;;9.33;3.93;;;;;;;-145.69;62.97;52076.03;5526842;26;20225;-77
2024/04/13 05:41:44;;;;;;;6.03;3.40;;;;;;;-145.69;62.39;52062.19;5527525;26;20749;-78
2024/04/13 05:44:12;;;;;;;8.57;3.70;;;;;;;-145.69;61.87;52076.03;5527592;26;20260;-77
2024/04/13 05:46:38;;;;;;;8.03;3.60;;;;;;;-145.69;62.06;52083.97;5527195;26;20230;-76
2024/04/13 05:49:08;;;;;;;11.77;4.10;;;;;;;-145.69;61.56;52072.09;5527229;26;20218;-78
2024/04/13 05:51:33;;;;;;;9.00;3.50;;;;;;;-145.69;61.57;52101.78;5526868;26;20256;-77
2024/04/13 05:54:02;;;;;;;9.37;3.60;;;;;;;-145.69;61.29;52074.06;5527498;26;20225;-77
2024/04/13 05:56:28;;;;;;;5.83;2.97;;;;;;;-145.69;61.37;52060.22;5526406;26;20547;-77
2024/04/13 05:58:58;;;;;;;10.57;3.37;;;;;;;-145.69;61.44;52060.22;5527163;26;20222;-78
2024/04/13 06:01:25;;;;;;;12.00;3.20;;;;;;;-145.69;61.21;52070.09;5527091;26;20268;-78
2024/04/13 06:03:54;;;;;;;10.03;3.27;;;;;;;-145.69;61.46;52099.81;5527002;26;20260;-78
2024/04/13 06:06:19;;;;;;;6.17;2.80;;;;;;;-145.69;61.44;52054.25;5527085;26;20285;-78
2024/04/13 06:08:48;;;;;;;9.57;3.47;;;;;;;-145.69;61.56;52022.59;5526051;26;20314;-78
2024/04/13 06:11:15;;;;;;;7.87;3.27;;;;;;;-145.69;61.39;52054.25;5526831;26;20225;-78
2024/04/13 06:13:43;;;;;;;7.83;3.50;;;;;;;-145.69;61.31;52076.03;5526648;26;20260;-78
2024/04/13 06:16:11;;;;;;;5.27;2.80;;;;;;;-145.69;61.02;52052.28;5526888;26;20256;-78
2024/04/13 06:18:40;;;;;;;5.70;3.07;;;;;;;-145.69;60.90;52060.22;5526954;26;20226;-77
2024/04/13 06:21:05;;;;;;;8.20;3.03;;;;;;;-145.69;60.65;52036.44;5526530;26;20226;-79
2024/04/13 06:23:34;;;;;;;10.57;3.00;;;;;;;-145.69;60.76;52076.03;5526914;26;20225;-79
2024/04/13 06:25:59;;;;;;;7.97;2.80;;;;;;;-145.69;60.73;52060.22;5526620;26;20233;-78
2024/04/13 06:28:27;;;;;;;6.47;2.73;;;;;;;-145.69;60.29;52028.53;5526715;26;20303;-78
2024/04/13 06:30:53;;;;;;;6.07;2.83;;;;;;;-145.69;60.44;52036.44;5525883;26;20226;-78
2024/04/13 06:33:24;;;;;;;5.30;2.60;;;;;;;-145.69;60.55;52062.19;5526325;26;20233;-78
2024/04/13 06:35:49;;;;;;;4.53;2.50;;;;;;;-145.69;60.29;52044.38;5526505;26;20259;-79
2024/04/13 06:38:23;;;;;;;9.77;3.30;;;;;;;-145.69;60.23;52040.41;5526010;26;20264;-78
2024/04/13 06:40:49;;;;;;;11.93;3.07;;;;;;;-145.69;59.96;52052.28;5526436;26;20230;-78
2024/04/13 06:43:17;;;;;;;5.50;2.50;;;;;;;-145.69;60.01;52034.47;5525543;26;20344;-77
2024/04/13 06:45:42;;;;;;;6.80;2.70;;;;;;;-145.69;59.87;52056.25;5526521;26;20317;-78
2024/04/13 06:48:10;;;;;;;5.83;2.80;;;;;;;-145.69;59.86;52038.44;5526672;26;20226;-78
2024/04/13 06:50:40;;;;;;;4.73;2.60;;;;;;;-145.69;59.76;52040.41;5525645;26;20285;-77
2024/04/13 06:53:08;;;;;;;5.72;2.45;;;;;;;-145.69;59.69;52028.53;5525548;26;20301;-78
2024/04/13 06:55:33;;;;;;;6.90;2.63;;;;;;;-145.69;59.32;52022.59;5525761;26;20263;-78
2024/04/13 06:58:02;;;;;;;5.28;2.88;;;;;;;-145.69;59.68;52032.47;5522893;26;20234;-79
2024/04/13 07:00:27;;;;;;;6.10;2.40;;;;;;;-145.69;59.46;52036.44;5489411;26;20218;-79
2024/04/13 07:02:55;;;;;;;5.40;2.23;;;;;;;-145.69;58.87;52026.53;5489190;26;20562;-78
2024/04/13 07:05:21;;;;;;;3.97;1.90;;;;;;;-145.69;57.88;52008.72;5488846;26;20223;-79
2024/04/13 07:07:51;;;;;;;5.90;1.98;;;;;;;-145.69;56.12;52008.72;5488822;26;20226;-78
2024/04/13 07:10:17;;;;;;;5.63;2.05;;;;;;;-145.69;55.51;52018.63;5489116;26;20282;-79
2024/04/13 07:12:45;;;;;;;3.25;2.08;;;;;;;-145.69;54.53;51992.88;5489255;26;20652;-78
2024/04/13 07:15:11;;;;;;;6.20;1.95;;;;;;;-145.69;53.83;52028.53;5508523;26;20221;-78
2024/04/13 07:17:39;;;;;;;4.03;1.80;;;;;;;-145.69;53.65;51994.88;5523685;26;20264;-80
2024/04/13 07:20:07;;;;;;;3.78;1.73;;;;;;;-145.69;52.57;52014.66;5525900;26;20281;-78
2024/04/13 07:22:35;;;;;;;3.25;1.80;;;;;;;-145.69;51.95;52020.59;5525680;26;20221;-77
2024/04/13 07:25:04;;;;;;;2.95;1.55;;;;;;;-145.69;50.18;51977.03;5525673;26;20275;-78
2024/04/13 07:27:32;;;;;;;3.83;1.63;;;;;;;-145.69;49.96;52000.81;5525294;26;20258;-78
2024/04/13 07:29:57;;;;;;;4.80;1.70;;;;;;;-145.69;48.75;52016.66;5525281;26;20277;-77
2024/04/13 07:32:26;;;;;;;8.43;1.67;;;;;;;-145.69;48.54;51981.00;5525778;26;20213;-78
2024/04/13 07:34:51;;;;;;;9.90;2.08;;;;;;;-145.69;48.35;52008.72;5525588;26;20217;-78
2024/04/13 07:37:23;;;;;;;4.20;1.45;;;;;;;-145.69;47.83;51965.16;5525303;26;20259;-78
2024/04/13 07:39:48;;;;;;;12.10;2.10;;;;;;;-145.69;48.13;51986.94;5525477;26;20233;-78
2024/04/13 07:42:19;;;;;;;6.43;1.83;;;;;;;-145.69;48.20;51998.81;5524190;26;20283;-77
2024/04/13 07:44:45;;;;;;;4.60;1.75;;;;;;;-145.69;48.26;51961.19;5524391;26;20781;-78
2024/04/13 07:47:13;;;;;;;6.75;2.10;;;;;;;-145.69;49.14;51994.88;5523413;26;20225;-78
2024/04/13 07:49:39;;;;;;;4.07;1.83;;;;;;;-145.69;48.49;51977.03;5524989;26;20263;-78
2024/04/13 07:52:08;;;;;;;3.58;1.70;;;;;;;-145.69;48.57;51953.28;5525004;26;20225;-78
2024/04/13 07:54:33;;;;;;;7.07;2.10;;;;;;;-145.69;48.95;51945.34;5525248;26;20608;-77
2024/04/13 07:57:02;;;;;;;4.05;1.90;;;;;;;-145.69;48.64;51981.00;5525229;26;20225;-77
2024/04/13 07:59:30;;;;;;;5.30;2.22;;;;;;;-145.69;48.01;51984.97;5525432;26;20591;-76
2024/04/13 08:01:58;;;;;;;3.65;1.85;;;;;;;-145.69;48.13;51937.44;5523733;26;20767;-79
2024/04/13 08:04:24;;;;;;;5.45;1.80;;;;;;;-145.69;48.36;51969.13;5530628;25;20255;-79
2024/04/13 08:06:52;;;;;;;4.35;2.10;;;;;;;-145.69;46.07;51971.09;5524584;26;20619;-78
2024/04/13 08:09:18;;;;;;;8.65;1.67;;;;;;;-145.69;45.77;51955.25;5524290;26;20561;-78
2024/04/13 08:11:46;;;;;;;3.75;1.60;;;;;;;-145.69;45.64;51927.53;5524208;26;20247;-77
2024/04/13 08:14:11;;;;;;;3.95;2.00;;;;;;;-145.69;45.07;51951.28;5524970;26;20549;-77
2024/04/13 08:16:44;;;;;;;5.20;1.77;;;;;;;-145.69;43.48;51951.28;5524367;26;20268;-77
2024/04/13 08:19:10;;;;;;;3.97;1.50;;;;;;;-145.69;44.15;51951.28;5524258;26;20264;-77
2024/04/13 08:21:38;;;;;;;6.50;2.22;;;;;;;-145.69;43.83;51957.25;5523793;26;20289;-77
2024/04/13 08:24:04;;;;;;;3.80;2.00;;;;;;;-145.69;42.93;51947.34;5524705;26;20238;-77
2024/04/13 08:26:32;;;;;;;2.80;1.95;;;;;;;-145.69;42.44;51931.50;5524515;26;20225;-77
2024/04/13 08:28:58;;;;;;;6.65;1.77;;;;;;;-145.69;42.33;51941.41;5524391;26;20264;-77
2024/04/13 08:31:26;;;;;;;5.13;1.63;;;;;;;-145.69;41.98;51937.44;5524093;26;20699;-78
2024/04/13 08:33:54;;;;;;;5.70;2.15;;;;;;;-145.69;41.86;51919.63;5523850;26;20241;-77
2024/04/13 08:36:22;;;;;;;5.60;2.00;;;;;;;-145.69;42.47;51941.41;5523002;26;20225;-78
2024/04/13 08:38:51;;;;;;;5.65;2.05;;;;;;;-145.69;41.60;51909.72;5523056;26;20680;-77
2024/04/13 08:41:28;;;;;;;5.57;1.90;;;;;;;-145.69;41.21;51882.00;5524202;26;20289;-77
2024/04/13 08:43:54;;;;;;;4.20;2.03;;;;;;;-145.69;41.72;51905.75;5524505;26;20213;-77
2024/04/13 08:46:26;;;;;;;7.78;1.80;;;;;;;-145.69;41.98;51909.72;5524235;26;20275;-77
2024/04/13 08:49:00;;;;;;;5.45;2.38;;;;;;;-145.69;41.43;51941.41;5523936;26;20221;-77
2024/04/13 08:51:29;;;;;;;3.80;1.77;;;;;;;-145.69;41.69;51909.72;5524243;26;20720;-78
2024/04/13 08:53:54;;;;;;;5.38;1.67;;;;;;;-145.69;41.13;51923.56;5518248;25;20233;-78
2024/04/13 08:56:23;;;;;;;10.13;1.70;;;;;;;-145.69;41.39;51937.44;5524043;26;20362;-77
2024/04/13 08:58:51;;;;;;;5.80;1.98;;;;;;;-145.69;41.05;51897.84;5526734;26;20226;-77
2024/04/13 09:01:25;;;;;;;5.25;2.28;;;;;;;-145.69;39.86;51899.81;5527503;26;20302;-77
2024/04/13 09:04:01;;;;;;;2.85;1.58;;;;;;;-145.69;40.57;51927.53;5526965;26;20708;-77
2024/04/13 09:06:30;;;;;;;4.50;1.75;;;;;;;-145.69;40.62;51921.59;5527600;26;20225;-77
2024/04/13 09:08:55;;;;;;;4.20;1.83;;;;;;;-145.69;41.76;51885.94;5527117;26;20233;-77
2024/04/13 09:11:24;;;;;;;7.90;2.17;;;;;;;-145.69;41.88;51917.63;5527519;26;20234;-78
2024/04/13 09:13:52;;;;;;;7.72;1.88;;;;;;;-145.69;42.81;51889.91;5527293;26;20225;-77
2024/04/13 09:16:22;;;;;;;8.95;1.70;;;;;;;-145.69;41.78;51925.56;5527462;26;20587;-77
2024/04/13 09:18:48;;;;;;;8.05;2.05;;;;;;;-145.69;40.67;51897.84;5527188;26;20563;-78
2024/04/13 09:21:20;;;;;;;8.10;2.55;;;;;;;-145.69;41.65;51917.63;5527542;26;20229;-78
2024/04/13 09:23:56;;;;;;;;;;;;;;;;;;;;;
2024/04/13 09:26:25;;;;;;;9.38;1.70;;;;;;;-145.69;40.88;51905.75;5486822;26;20226;-75
2024/04/13 09:28:55;;;;;;;4.80;1.77;;;;;;;-145.69;40.59;51885.94;5490769;26;20268;-77
2024/04/13 09:31:25;;;;;;;4.55;1.70;;;;;;;-145.69;39.29;51889.91;5513210;26;20469;-76
2024/04/13 09:33:59;;;;;;;4.05;1.60;;;;;;;-145.69;39.02;51895.84;5527381;26;20277;-77
2024/04/13 09:36:31;;;;;;;6.45;1.63;;;;;;;-145.69;40.63;51943.38;5526820;26;20707;-77
2024/04/13 09:38:59;;;;;;;4.68;1.90;;;;;;;-145.69;39.57;51889.91;5526721;26;20256;-77
2024/04/13 09:41:28;;;;;;;4.50;1.88;;;;;;;-145.69;39.21;51905.75;5527224;26;20708;-77
2024/04/13 09:44:07;;;;;;;2.85;1.45;;;;;;;-145.69;39.04;51893.88;5527557;26;20222;-77
2024/04/13 09:46:36;;;;;;;3.90;1.60;;;;;;;-145.69;38.65;51905.75;5526896;26;20259;-77
2024/04/13 09:49:07;;;;;;;4.30;1.40;;;;;;;-145.69;38.95;51891.88;5527206;26;20337;-76
2024/04/13 09:51:46;;;;;;;4.13;1.70;;;;;;;-145.69;38.62;51913.69;5527079;26;20225;-77
2024/04/13 09:54:12;;;;;;;3.55;1.20;;;;;;;-145.69;39.47;51868.13;5526717;26;20281;-77
2024/04/13 09:56:41;;;;;;;3.25;1.65;;;;;;;-145.69;39.03;51901.78;5526434;26;20747;-77
2024/04/13 09:59:12;;;;;;;2.97;1.35;;;;;;;-145.69;38.49;51876.06;5527764;26;20711;-76
2024/04/13 10:01:40;;;;;;;5.03;1.65;;;;;;;-145.69;38.54;51889.91;5526968;26;20241;-77
2024/04/13 10:04:06;;;;;;;4.32;1.67;;;;;;;-145.69;38.22;51866.16;5526943;26;20221;-77
2024/04/13 10:06:39;;;;;;;4.45;1.50;;;;;;;-145.69;37.87;51858.22;5526608;26;20309;-78
2024/04/13 10:09:12;;;;;;;2.97;1.40;;;;;;;-145.69;37.66;51885.94;5524737;26;20764;-77
2024/04/13 10:11:43;;;;;;;2.55;1.00;;;;;;;-145.69;36.98;51882.00;5526478;26;20260;-77
2024/04/13 10:14:10;;;;;;;5.45;1.20;;;;;;;-145.69;36.56;51846.34;5526910;26;20263;-78
2024/04/13 10:16:40;;;;;;;1.98;1.05;;;;;;;-145.69;35.67;51889.91;5526165;26;20225;-77
2024/04/13 10:19:05;;;;;;;2.90;1.00;;;;;;;-145.69;34.57;51854.28;5526476;26;20218;-77
2024/04/13 10:21:40;;;;;;;6.22;1.10;;;;;;;-145.69;35.80;51848.34;5526470;26;20227;-77
2024/04/13 10:24:14;;;;;;;5.72;1.90;;;;;;;-145.69;34.88;51856.25;5526512;26;20340;-77
2024/04/13 10:26:46;;;;;;;3.25;1.10;;;;;;;-145.69;34.81;51854.28;5526460;26;20285;-77
2024/04/13 10:29:25;;;;;;;3.13;1.67;;;;;;;-145.69;36.06;51838.44;5525898;26;20225;-77
2024/04/13 10:31:53;;;;;;;3.58;1.75;;;;;;;-145.69;36.21;51862.19;5525887;26;20233;-77
2024/04/13 10:34:26;;;;;;;6.38;2.00;;;;;;;-145.69;35.54;51830.50;5526235;26;20282;-77
2024/04/13 10:37:01;;;;;;;4.60;1.90;;;;;;;-145.69;35.04;51832.50;5526161;26;20621;-77
2024/04/13 10:39:27;;;;;;;4.90;1.98;;;;;;;-145.69;35.11;51854.28;5522679;26;20688;-78
2024/04/13 10:41:55;;;;;;;4.28;1.90;;;;;;;-145.69;35.33;51844.38;5525993;26;20264;-77
2024/04/13 10:44:24;;;;;;;9.30;1.90;;;;;;;-145.69;35.16;51830.50;5526192;26;20222;-77
2024/04/13 10:46:54;;;;;;;4.45;1.88;;;;;;;-145.69;35.21;51834.47;5524835;26;20321;-77
2024/04/13 10:49:20;;;;;;;5.60;1.80;;;;;;;-145.69;35.17;51806.75;5526223;26;20230;-77
2024/04/13 10:51:48;;;;;;;2.30;1.20;;;;;;;-145.69;35.39;51838.44;5526233;26;20225;-77
2024/04/13 10:54:17;;;;;;;3.40;1.65;;;;;;;-145.69;34.86;51832.50;5526016;26;20731;-78
2024/04/13 10:56:46;;;;;;;4.55;1.58;;;;;;;-145.69;34.33;51830.50;5499848;26;20268;-77
2024/04/13 10:59:12;;;;;;;3.22;1.55;;;;;;;-145.69;34.25;51840.41;5488969;26;20286;-78
2024/04/13 11:01:44;;;;;;;3.80;1.38;;;;;;;-145.69;34.37;51800.81;5489006;26;20270;-77
2024/04/13 11:04:11;;;;;;;3.03;1.25;;;;;;;-145.69;34.54;51840.41;5521446;26;20268;-77
2024/04/13 11:06:41;;;;;;;2.35;1.48;;;;;;;-145.69;34.16;51816.66;5525268;26;20556;-77
2024/04/13 11:09:09;;;;;;;8.50;1.27;;;;;;;-145.69;34.76;51848.34;5525381;26;20229;-77
2024/04/13 11:11:50;;;;;;;4.43;1.30;;;;;;;-145.69;34.39;51783.00;5525787;26;20556;-77
2024/04/13 11:14:22;;;;;;;7.25;1.38;;;;;;;-145.69;34.53;51792.88;5525656;26;20743;-77
2024/04/13 11:16:53;;;;;;;4.97;1.25;;;;;;;-145.69;33.83;51810.72;5525623;26;20288;-78
2024/04/13 11:19:19;;;;;;;5.20;1.30;;;;;;;-145.69;34.06;51830.50;5525258;26;20225;-77
2024/04/13 11:21:48;;;;;;;2.55;1.38;;;;;;;-145.69;34.66;51802.78;5525261;26;20264;-77
2024/04/13 11:24:13;;;;;;;4.03;1.42;;;;;;;-145.69;34.11;51786.94;5524615;26;20233;-77
2024/04/13 11:26:50;;;;;;;3.55;1.23;;;;;;;-145.69;33.95;51806.75;5525579;26;20264;-78